sensor_id;sensor_type;location;lat;lon;timestamp;pressure;altitude;pressure_sealevel;temperature;humidity
54870;BME280;40756;-37.950;145.008;2022-08-02T00:00:14;101291.78;;;13.18;42.47
54870;BME280;40756;-37.950;145.008;2022-08-02T00:02:45;101275.47;;;13.67;41.92
54870;BME280;40756;-37.950;145.008;2022-08-02T00:05:14;101270.32;;;13.81;41.90
54870;BME280;40756;-37.950;145.008;2022-08-02T00:07:44;101272.05;;;13.65;41.68
54870;BME280;40756;-37.950;145.008;2022-08-02T00:10:14;101267.36;;;13.83;41.77
54870;BME280;40756;-37.950;145.008;2022-08-02T00:12:44;101267.04;;;13.91;41.78
54870;BME280;40756;-37.950;145.008;2022-08-02T00:15:14;101268.70;;;13.24;42.36
54870;BME280;40756;-37.950;145.008;2022-08-02T00:17:44;101257.98;;;13.87;41.91
54870;BME280;40756;-37.950;145.008;2022-08-02T00:20:13;101257.85;;;13.89;41.71
54870;BME280;40756;-37.950;145.008;2022-08-02T00:22:43;101253.84;;;13.63;42.05
54870;BME280;40756;-37.950;145.008;2022-08-02T00:25:14;101251.56;;;13.41;41.63
54870;BME280;40756;-37.950;145.008;2022-08-02T00:27:44;101242.69;;;13.71;41.01
54870;BME280;40756;-37.950;145.008;2022-08-02T00:30:14;101247.59;;;13.54;41.81
54870;BME280;40756;-37.950;145.008;2022-08-02T00:32:43;101240.78;;;14.53;40.94
54870;BME280;40756;-37.950;145.008;2022-08-02T00:35:13;101236.33;;;14.93;39.97
54870;BME280;40756;-37.950;145.008;2022-08-02T00:37:42;101235.01;;;14.73;39.39
54870;BME280;40756;-37.950;145.008;2022-08-02T00:40:12;101236.24;;;14.81;39.93
54870;BME280;40756;-37.950;145.008;2022-08-02T00:42:42;101230.24;;;15.13;39.01
54870;BME280;40756;-37.950;145.008;2022-08-02T00:45:11;101233.51;;;15.95;38.22
54870;BME280;40756;-37.950;145.008;2022-08-02T00:47:41;101225.52;;;15.23;38.72
54870;BME280;40756;-37.950;145.008;2022-08-02T00:50:11;101219.35;;;15.59;38.15
54870;BME280;40756;-37.950;145.008;2022-08-02T00:52:40;101219.66;;;15.95;38.27
54870;BME280;40756;-37.950;145.008;2022-08-02T00:55:10;101211.78;;;15.93;38.61
54870;BME280;40756;-37.950;145.008;2022-08-02T00:57:39;101209.08;;;15.14;37.88
54870;BME280;40756;-37.950;145.008;2022-08-02T01:00:10;101211.31;;;15.57;37.89
54870;BME280;40756;-37.950;145.008;2022-08-02T01:02:39;101206.64;;;15.55;37.54
54870;BME280;40756;-37.950;145.008;2022-08-02T01:05:09;101194.93;;;15.83;37.14
54870;BME280;40756;-37.950;145.008;2022-08-02T01:07:39;101186.28;;;15.69;37.16
54870;BME280;40756;-37.950;145.008;2022-08-02T01:10:10;101182.12;;;15.50;37.79
54870;BME280;40756;-37.950;145.008;2022-08-02T01:12:40;101176.18;;;15.80;36.63
54870;BME280;40756;-37.950;145.008;2022-08-02T01:15:11;101177.94;;;14.91;37.72
54870;BME280;40756;-37.950;145.008;2022-08-02T01:17:46;101177.40;;;14.47;37.82
54870;BME280;40756;-37.950;145.008;2022-08-02T01:20:34;101169.23;;;15.88;37.63
54870;BME280;40756;-37.950;145.008;2022-08-02T01:23:27;101162.09;;;16.01;36.11
54870;BME280;40756;-37.950;145.008;2022-08-02T01:26:21;101151.32;;;16.34;35.85
54870;BME280;40756;-37.950;145.008;2022-08-02T01:29:00;101132.11;;;16.18;35.47
54870;BME280;40756;-37.950;145.008;2022-08-02T01:31:37;101130.15;;;16.54;36.24
54870;BME280;40756;-37.950;145.008;2022-08-02T01:34:14;101121.43;;;16.41;34.64
54870;BME280;40756;-37.950;145.008;2022-08-02T01:36:48;101113.99;;;16.20;35.41
54870;BME280;40756;-37.950;145.008;2022-08-02T01:39:25;101109.95;;;16.10;34.88
54870;BME280;40756;-37.950;145.008;2022-08-02T01:41:56;101115.90;;;15.69;34.81
54870;BME280;40756;-37.950;145.008;2022-08-02T01:44:31;101108.81;;;16.05;34.54
54870;BME280;40756;-37.950;145.008;2022-08-02T01:47:04;101104.01;;;15.97;35.01
54870;BME280;40756;-37.950;145.008;2022-08-02T01:49:36;101086.84;;;15.94;35.34
54870;BME280;40756;-37.950;145.008;2022-08-02T01:52:10;101083.74;;;15.91;34.54
54870;BME280;40756;-37.950;145.008;2022-08-02T01:54:41;101073.79;;;15.75;34.56
54870;BME280;40756;-37.950;145.008;2022-08-02T01:57:14;101074.01;;;15.92;34.54
54870;BME280;40756;-37.950;145.008;2022-08-02T01:59:45;101066.37;;;16.17;34.17
54870;BME280;40756;-37.950;145.008;2022-08-02T02:02:16;101065.08;;;16.16;33.17
54870;BME280;40756;-37.950;145.008;2022-08-02T02:04:47;101064.67;;;16.78;33.64
54870;BME280;40756;-37.950;145.008;2022-08-02T02:07:19;101077.01;;;17.10;33.58
54870;BME280;40756;-37.950;145.008;2022-08-02T02:09:49;101061.03;;;17.08;33.02
54870;BME280;40756;-37.950;145.008;2022-08-02T02:12:19;101064.22;;;16.29;32.96
54870;BME280;40756;-37.950;145.008;2022-08-02T02:14:51;101063.23;;;16.86;32.11
54870;BME280;40756;-37.950;145.008;2022-08-02T02:17:22;101062.12;;;16.23;31.47
54870;BME280;40756;-37.950;145.008;2022-08-02T02:19:53;101060.73;;;17.13;31.67
54870;BME280;40756;-37.950;145.008;2022-08-02T02:22:25;101069.47;;;16.76;31.63
54870;BME280;40756;-37.950;145.008;2022-08-02T02:24:54;101055.50;;;16.24;31.51
54870;BME280;40756;-37.950;145.008;2022-08-02T02:27:29;101060.47;;;16.62;31.69
54870;BME280;40756;-37.950;145.008;2022-08-02T02:29:59;101069.73;;;16.45;31.83
54870;BME280;40756;-37.950;145.008;2022-08-02T02:32:32;101069.03;;;16.24;31.61
54870;BME280;40756;-37.950;145.008;2022-08-02T02:35:04;101055.39;;;15.95;31.61
54870;BME280;40756;-37.950;145.008;2022-08-02T02:37:35;101054.85;;;15.95;31.85
54870;BME280;40756;-37.950;145.008;2022-08-02T02:40:08;101039.29;;;15.53;31.97
54870;BME280;40756;-37.950;145.008;2022-08-02T02:42:38;101033.76;;;16.57;31.94
54870;BME280;40756;-37.950;145.008;2022-08-02T02:45:11;101030.19;;;15.84;31.69
54870;BME280;40756;-37.950;145.008;2022-08-02T02:47:42;101028.07;;;14.83;32.37
54870;BME280;40756;-37.950;145.008;2022-08-02T02:50:12;101019.21;;;16.01;32.12
54870;BME280;40756;-37.950;145.008;2022-08-02T02:52:42;101013.45;;;15.42;32.24
54870;BME280;40756;-37.950;145.008;2022-08-02T02:55:13;101019.86;;;15.95;32.05
54870;BME280;40756;-37.950;145.008;2022-08-02T02:57:43;101017.35;;;16.34;31.98
54870;BME280;40756;-37.950;145.008;2022-08-02T03:00:14;101004.91;;;17.03;32.04
54870;BME280;40756;-37.950;145.008;2022-08-02T03:02:45;100992.10;;;16.69;31.66
54870;BME280;40756;-37.950;145.008;2022-08-02T03:05:15;100990.88;;;15.66;31.20
54870;BME280;40756;-37.950;145.008;2022-08-02T03:07:44;100985.00;;;16.23;32.13
54870;BME280;40756;-37.950;145.008;2022-08-02T03:10:14;100964.29;;;15.74;32.30
54870;BME280;40756;-37.950;145.008;2022-08-02T03:12:43;100961.30;;;16.15;32.70
54870;BME280;40756;-37.950;145.008;2022-08-02T03:15:13;100944.59;;;16.21;32.19
54870;BME280;40756;-37.950;145.008;2022-08-02T03:17:46;100945.87;;;15.44;32.57
54870;BME280;40756;-37.950;145.008;2022-08-02T03:20:17;100946.32;;;14.78;33.08
54870;BME280;40756;-37.950;145.008;2022-08-02T03:22:47;100931.24;;;15.38;32.51
54870;BME280;40756;-37.950;145.008;2022-08-02T03:25:17;100935.60;;;15.20;32.89
54870;BME280;40756;-37.950;145.008;2022-08-02T03:27:47;100924.72;;;15.60;33.17
54870;BME280;40756;-37.950;145.008;2022-08-02T03:30:18;100925.04;;;16.64;32.44
54870;BME280;40756;-37.950;145.008;2022-08-02T03:32:48;100910.65;;;17.02;31.95
54870;BME280;40756;-37.950;145.008;2022-08-02T03:35:18;100899.46;;;17.13;31.20
54870;BME280;40756;-37.950;145.008;2022-08-02T03:37:48;100896.67;;;16.10;31.60
54870;BME280;40756;-37.950;145.008;2022-08-02T03:40:19;100873.23;;;16.63;30.67
54870;BME280;40756;-37.950;145.008;2022-08-02T03:42:49;100860.47;;;16.32;31.70
54870;BME280;40756;-37.950;145.008;2022-08-02T03:45:20;100857.24;;;17.81;31.08
54870;BME280;40756;-37.950;145.008;2022-08-02T03:47:51;100837.81;;;18.06;29.25
54870;BME280;40756;-37.950;145.008;2022-08-02T03:50:20;100840.83;;;19.29;28.66
54870;BME280;40756;-37.950;145.008;2022-08-02T03:52:50;100815.51;;;19.91;27.39
54870;BME280;40756;-37.950;145.008;2022-08-02T03:55:24;100809.36;;;20.24;26.88
54870;BME280;40756;-37.950;145.008;2022-08-02T03:58:01;100804.16;;;20.20;26.40
54870;BME280;40756;-37.950;145.008;2022-08-02T04:00:32;100817.05;;;18.60;27.43
54870;BME280;40756;-37.950;145.008;2022-08-02T04:03:02;100819.42;;;19.35;26.99
54870;BME280;40756;-37.950;145.008;2022-08-02T04:05:31;100812.63;;;18.13;27.76
54870;BME280;40756;-37.950;145.008;2022-08-02T04:08:01;100809.73;;;17.38;28.81
54870;BME280;40756;-37.950;145.008;2022-08-02T04:10:31;100809.86;;;17.96;28.35
54870;BME280;40756;-37.950;145.008;2022-08-02T04:13:00;100810.38;;;18.52;28.48
54870;BME280;40756;-37.950;145.008;2022-08-02T04:15:30;100807.41;;;17.10;29.00
54870;BME280;40756;-37.950;145.008;2022-08-02T04:18:01;100810.73;;;18.02;29.59
54870;BME280;40756;-37.950;145.008;2022-08-02T04:20:32;100804.51;;;18.61;28.70
54870;BME280;40756;-37.950;145.008;2022-08-02T04:23:04;100781.86;;;18.11;28.37
54870;BME280;40756;-37.950;145.008;2022-08-02T04:25:35;100770.11;;;18.24;29.29
54870;BME280;40756;-37.950;145.008;2022-08-02T04:28:07;100759.93;;;18.48;28.62
54870;BME280;40756;-37.950;145.008;2022-08-02T04:30:37;100763.42;;;18.81;27.91
54870;BME280;40756;-37.950;145.008;2022-08-02T04:33:07;100773.17;;;18.02;28.14
54870;BME280;40756;-37.950;145.008;2022-08-02T04:35:37;100762.92;;;17.76;28.49
54870;BME280;40756;-37.950;145.008;2022-08-02T04:38:07;100769.71;;;17.96;29.23
54870;BME280;40756;-37.950;145.008;2022-08-02T04:40:37;100768.23;;;17.50;29.75
54870;BME280;40756;-37.950;145.008;2022-08-02T04:43:08;100767.21;;;17.44;29.84
54870;BME280;40756;-37.950;145.008;2022-08-02T04:45:38;100761.36;;;17.68;29.94
54870;BME280;40756;-37.950;145.008;2022-08-02T04:48:09;100753.43;;;17.18;30.14
54870;BME280;40756;-37.950;145.008;2022-08-02T04:50:38;100758.88;;;18.32;29.19
54870;BME280;40756;-37.950;145.008;2022-08-02T04:53:07;100757.76;;;18.82;29.18
54870;BME280;40756;-37.950;145.008;2022-08-02T04:55:37;100766.45;;;18.07;28.70
54870;BME280;40756;-37.950;145.008;2022-08-02T04:58:07;100779.02;;;17.86;29.31
54870;BME280;40756;-37.950;145.008;2022-08-02T05:00:36;100783.49;;;17.43;29.36
54870;BME280;40756;-37.950;145.008;2022-08-02T05:03:06;100771.63;;;18.05;29.56
54870;BME280;40756;-37.950;145.008;2022-08-02T05:05:35;100771.37;;;17.45;29.97
54870;BME280;40756;-37.950;145.008;2022-08-02T05:08:05;100758.22;;;17.37;29.97
54870;BME280;40756;-37.950;145.008;2022-08-02T05:10:34;100750.58;;;17.76;30.08
54870;BME280;40756;-37.950;145.008;2022-08-02T05:13:05;100747.49;;;17.52;29.70
54870;BME280;40756;-37.950;145.008;2022-08-02T05:15:34;100738.88;;;17.96;29.64
54870;BME280;40756;-37.950;145.008;2022-08-02T05:18:05;100737.32;;;17.66;29.54
54870;BME280;40756;-37.950;145.008;2022-08-02T05:20:34;100741.10;;;17.90;30.23
54870;BME280;40756;-37.950;145.008;2022-08-02T05:23:04;100734.02;;;18.36;29.21
54870;BME280;40756;-37.950;145.008;2022-08-02T05:25:34;100746.43;;;17.95;29.20
54870;BME280;40756;-37.950;145.008;2022-08-02T05:28:03;100745.68;;;17.94;29.29
54870;BME280;40756;-37.950;145.008;2022-08-02T05:30:33;100749.46;;;18.04;29.53
54870;BME280;40756;-37.950;145.008;2022-08-02T05:33:02;100752.66;;;17.67;29.40
54870;BME280;40756;-37.950;145.008;2022-08-02T05:35:32;100744.94;;;17.47;29.51
54870;BME280;40756;-37.950;145.008;2022-08-02T05:38:01;100726.08;;;18.35;29.42
54870;BME280;40756;-37.950;145.008;2022-08-02T05:40:31;100723.76;;;17.90;29.41
54870;BME280;40756;-37.950;145.008;2022-08-02T05:43:01;100714.18;;;17.51;29.35
54870;BME280;40756;-37.950;145.008;2022-08-02T05:45:35;100715.15;;;18.57;28.83
54870;BME280;40756;-37.950;145.008;2022-08-02T05:48:05;100710.18;;;18.39;28.57
54870;BME280;40756;-37.950;145.008;2022-08-02T05:50:38;100712.95;;;18.89;28.17
54870;BME280;40756;-37.950;145.008;2022-08-02T05:53:22;100689.50;;;18.48;28.44
54870;BME280;40756;-37.950;145.008;2022-08-02T05:56:02;100689.25;;;18.62;28.77
54870;BME280;40756;-37.950;145.008;2022-08-02T05:58:39;100684.04;;;18.88;27.93
54870;BME280;40756;-37.950;145.008;2022-08-02T06:01:12;100684.06;;;18.14;28.26
54870;BME280;40756;-37.950;145.008;2022-08-02T06:03:50;100686.05;;;18.13;28.85
54870;BME280;40756;-37.950;145.008;2022-08-02T06:06:22;100690.90;;;17.06;29.66
54870;BME280;40756;-37.950;145.008;2022-08-02T06:08:59;100683.23;;;17.53;30.62
54870;BME280;40756;-37.950;145.008;2022-08-02T06:11:36;100694.49;;;16.57;31.41
54870;BME280;40756;-37.950;145.008;2022-08-02T06:14:07;100689.10;;;17.31;30.96
54870;BME280;40756;-37.950;145.008;2022-08-02T06:16:37;100684.69;;;17.05;30.61
54870;BME280;40756;-37.950;145.008;2022-08-02T06:19:08;100695.35;;;16.81;31.42
54870;BME280;40756;-37.950;145.008;2022-08-02T06:21:40;100689.10;;;15.96;32.28
54870;BME280;40756;-37.950;145.008;2022-08-02T06:24:11;100681.58;;;16.23;32.32
54870;BME280;40756;-37.950;145.008;2022-08-02T06:26:41;100692.22;;;16.70;32.19
54870;BME280;40756;-37.950;145.008;2022-08-02T06:29:12;100697.72;;;16.65;32.33
54870;BME280;40756;-37.950;145.008;2022-08-02T06:31:42;100688.36;;;16.57;32.59
54870;BME280;40756;-37.950;145.008;2022-08-02T06:34:11;100687.97;;;15.91;32.55
54870;BME280;40756;-37.950;145.008;2022-08-02T06:36:49;100694.01;;;16.36;32.36
54870;BME280;40756;-37.950;145.008;2022-08-02T06:39:24;100705.45;;;16.14;32.65
54870;BME280;40756;-37.950;145.008;2022-08-02T06:41:58;100696.31;;;15.95;33.06
54870;BME280;40756;-37.950;145.008;2022-08-02T06:44:32;100699.82;;;16.02;33.32
54870;BME280;40756;-37.950;145.008;2022-08-02T06:47:02;100696.31;;;15.47;34.01
54870;BME280;40756;-37.950;145.008;2022-08-02T06:49:32;100698.65;;;15.12;34.29
54870;BME280;40756;-37.950;145.008;2022-08-02T06:52:03;100699.01;;;15.26;34.43
54870;BME280;40756;-37.950;145.008;2022-08-02T06:54:37;100708.41;;;15.43;34.42
54870;BME280;40756;-37.950;145.008;2022-08-02T06:57:12;100705.08;;;14.96;34.60
54870;BME280;40756;-37.950;145.008;2022-08-02T06:59:41;100693.12;;;15.14;34.32
54870;BME280;40756;-37.950;145.008;2022-08-02T07:02:12;100700.42;;;15.45;34.73
54870;BME280;40756;-37.950;145.008;2022-08-02T07:04:42;100702.82;;;14.76;35.17
54870;BME280;40756;-37.950;145.008;2022-08-02T07:07:11;100703.66;;;15.26;34.93
54870;BME280;40756;-37.950;145.008;2022-08-02T07:09:41;100713.41;;;15.01;34.87
54870;BME280;40756;-37.950;145.008;2022-08-02T07:12:11;100716.62;;;15.33;34.72
54870;BME280;40756;-37.950;145.008;2022-08-02T07:14:41;100708.43;;;15.33;34.84
54870;BME280;40756;-37.950;145.008;2022-08-02T07:17:11;100715.93;;;15.60;34.31
54870;BME280;40756;-37.950;145.008;2022-08-02T07:19:42;100721.48;;;13.60;36.02
54870;BME280;40756;-37.950;145.008;2022-08-02T07:22:12;100716.12;;;13.73;36.42
54870;BME280;40756;-37.950;145.008;2022-08-02T07:24:41;100709.94;;;14.54;35.45
54870;BME280;40756;-37.950;145.008;2022-08-02T07:27:11;100708.43;;;14.84;35.46
54870;BME280;40756;-37.950;145.008;2022-08-02T07:29:41;100709.54;;;14.60;35.27
54870;BME280;40756;-37.950;145.008;2022-08-02T07:32:10;100703.22;;;14.65;35.34
54870;BME280;40756;-37.950;145.008;2022-08-02T07:34:40;100699.74;;;14.52;35.61
54870;BME280;40756;-37.950;145.008;2022-08-02T07:37:10;100687.79;;;14.66;35.45
54870;BME280;40756;-37.950;145.008;2022-08-02T07:39:40;100668.80;;;14.18;35.51
54870;BME280;40756;-37.950;145.008;2022-08-02T07:42:10;100671.65;;;14.56;35.77
54870;BME280;40756;-37.950;145.008;2022-08-02T07:44:40;100664.60;;;14.75;35.43
54870;BME280;40756;-37.950;145.008;2022-08-02T07:47:09;100658.47;;;14.84;35.80
54870;BME280;40756;-37.950;145.008;2022-08-02T07:49:39;100663.79;;;14.83;35.39
54870;BME280;40756;-37.950;145.008;2022-08-02T07:52:09;100652.34;;;14.85;37.59
54870;BME280;40756;-37.950;145.008;2022-08-02T07:54:38;100641.19;;;14.67;35.87
54870;BME280;40756;-37.950;145.008;2022-08-02T07:57:08;100632.89;;;14.75;35.56
54870;BME280;40756;-37.950;145.008;2022-08-02T07:59:38;100627.63;;;14.87;35.34
54870;BME280;40756;-37.950;145.008;2022-08-02T08:02:08;100624.03;;;14.69;35.51
54870;BME280;40756;-37.950;145.008;2022-08-02T08:04:37;100617.68;;;14.80;35.90
54870;BME280;40756;-37.950;145.008;2022-08-02T08:07:07;100609.71;;;14.99;35.58
54870;BME280;40756;-37.950;145.008;2022-08-02T08:09:37;100611.12;;;14.60;38.47
54870;BME280;40756;-37.950;145.008;2022-08-02T08:12:07;100603.75;;;14.90;37.44
54870;BME280;40756;-37.950;145.008;2022-08-02T08:14:36;100599.37;;;15.03;36.92
54870;BME280;40756;-37.950;145.008;2022-08-02T08:17:06;100597.85;;;15.29;36.75
54870;BME280;40756;-37.950;145.008;2022-08-02T08:19:36;100592.02;;;15.41;35.48
54870;BME280;40756;-37.950;145.008;2022-08-02T08:22:06;100591.49;;;15.44;35.07
54870;BME280;40756;-37.950;145.008;2022-08-02T08:24:36;100584.11;;;15.24;35.28
54870;BME280;40756;-37.950;145.008;2022-08-02T08:27:06;100577.07;;;14.86;35.67
54870;BME280;40756;-37.950;145.008;2022-08-02T08:29:35;100578.79;;;14.45;36.40
54870;BME280;40756;-37.950;145.008;2022-08-02T08:32:05;100575.83;;;14.55;36.55
54870;BME280;40756;-37.950;145.008;2022-08-02T08:34:34;100565.68;;;14.50;36.65
54870;BME280;40756;-37.950;145.008;2022-08-02T08:37:04;100561.36;;;14.37;36.85
54870;BME280;40756;-37.950;145.008;2022-08-02T08:39:34;100559.25;;;14.65;36.94
54870;BME280;40756;-37.950;145.008;2022-08-02T08:42:06;100561.23;;;14.48;36.55
54870;BME280;40756;-37.950;145.008;2022-08-02T08:44:36;100563.60;;;14.51;36.95
54870;BME280;40756;-37.950;145.008;2022-08-02T08:47:06;100551.89;;;14.89;36.43
54870;BME280;40756;-37.950;145.008;2022-08-02T08:49:40;100556.90;;;14.47;36.65
54870;BME280;40756;-37.950;145.008;2022-08-02T08:52:14;100543.43;;;14.44;36.91
54870;BME280;40756;-37.950;145.008;2022-08-02T08:54:44;100538.34;;;14.40;36.45
54870;BME280;40756;-37.950;145.008;2022-08-02T08:57:17;100530.90;;;14.64;36.25
54870;BME280;40756;-37.950;145.008;2022-08-02T08:59:48;100540.42;;;14.48;36.47
54870;BME280;40756;-37.950;145.008;2022-08-02T09:02:17;100534.12;;;14.71;36.23
54870;BME280;40756;-37.950;145.008;2022-08-02T09:04:48;100524.90;;;14.66;35.88
54870;BME280;40756;-37.950;145.008;2022-08-02T09:07:18;100518.61;;;14.87;35.55
54870;BME280;40756;-37.950;145.008;2022-08-02T09:09:47;100511.39;;;13.96;36.75
54870;BME280;40756;-37.950;145.008;2022-08-02T09:12:18;100505.74;;;14.73;35.90
54870;BME280;40756;-37.950;145.008;2022-08-02T09:14:49;100505.38;;;14.81;35.44
54870;BME280;40756;-37.950;145.008;2022-08-02T09:17:18;100519.87;;;13.94;36.11
54870;BME280;40756;-37.950;145.008;2022-08-02T09:19:48;100517.98;;;14.47;35.85
54870;BME280;40756;-37.950;145.008;2022-08-02T09:22:35;100513.65;;;14.44;35.67
54870;BME280;40756;-37.950;145.008;2022-08-02T09:25:05;100506.88;;;14.81;35.60
54870;BME280;40756;-37.950;145.008;2022-08-02T09:27:43;100499.92;;;14.53;35.24
54870;BME280;40756;-37.950;145.008;2022-08-02T09:30:17;100509.11;;;15.11;35.43
54870;BME280;40756;-37.950;145.008;2022-08-02T09:32:48;100507.45;;;14.92;35.35
54870;BME280;40756;-37.950;145.008;2022-08-02T09:35:33;100503.49;;;14.44;35.06
54870;BME280;40756;-37.950;145.008;2022-08-02T09:38:11;100504.14;;;14.07;35.55
54870;BME280;40756;-37.950;145.008;2022-08-02T09:40:42;100500.13;;;14.50;35.58
54870;BME280;40756;-37.950;145.008;2022-08-02T09:43:12;100503.71;;;14.28;35.54
54870;BME280;40756;-37.950;145.008;2022-08-02T09:45:42;100498.29;;;14.76;35.22
54870;BME280;40756;-37.950;145.008;2022-08-02T09:48:12;100492.69;;;14.05;35.25
54870;BME280;40756;-37.950;145.008;2022-08-02T09:50:42;100496.31;;;14.11;35.79
54870;BME280;40756;-37.950;145.008;2022-08-02T09:53:13;100492.34;;;14.46;35.52
54870;BME280;40756;-37.950;145.008;2022-08-02T09:55:53;100485.49;;;14.32;35.50
54870;BME280;40756;-37.950;145.008;2022-08-02T09:58:23;100486.93;;;14.26;35.18
54870;BME280;40756;-37.950;145.008;2022-08-02T10:00:55;100501.39;;;14.45;34.78
54870;BME280;40756;-37.950;145.008;2022-08-02T10:03:25;100489.93;;;13.66;36.05
54870;BME280;40756;-37.950;145.008;2022-08-02T10:05:56;100498.48;;;14.49;34.77
54870;BME280;40756;-37.950;145.008;2022-08-02T10:08:27;100497.34;;;14.29;35.04
54870;BME280;40756;-37.950;145.008;2022-08-02T10:10:57;100494.15;;;14.52;34.89
54870;BME280;40756;-37.950;145.008;2022-08-02T10:13:29;100490.94;;;14.83;34.62
54870;BME280;40756;-37.950;145.008;2022-08-02T10:15:59;100482.02;;;14.47;34.50
54870;BME280;40756;-37.950;145.008;2022-08-02T10:18:30;100478.63;;;14.77;34.62
54870;BME280;40756;-37.950;145.008;2022-08-02T10:21:02;100463.52;;;14.24;34.61
54870;BME280;40756;-37.950;145.008;2022-08-02T10:23:39;100467.88;;;14.11;34.57
54870;BME280;40756;-37.950;145.008;2022-08-02T10:26:14;100475.08;;;14.28;34.32
54870;BME280;40756;-37.950;145.008;2022-08-02T10:28:47;100485.38;;;14.33;34.20
54870;BME280;40756;-37.950;145.008;2022-08-02T10:31:32;100492.78;;;14.48;33.99
54870;BME280;40756;-37.950;145.008;2022-08-02T10:34:03;100482.16;;;14.40;33.91
54870;BME280;40756;-37.950;145.008;2022-08-02T10:36:38;100479.93;;;14.13;34.08
54870;BME280;40756;-37.950;145.008;2022-08-02T10:39:07;100486.75;;;14.90;33.71
54870;BME280;40756;-37.950;145.008;2022-08-02T10:41:47;100486.14;;;14.49;33.83
54870;BME280;40756;-37.950;145.008;2022-08-02T10:44:26;100481.89;;;14.38;34.05
54870;BME280;40756;-37.950;145.008;2022-08-02T10:47:30;100472.92;;;14.79;34.09
54870;BME280;40756;-37.950;145.008;2022-08-02T10:50:00;100469.53;;;14.15;34.21
54870;BME280;40756;-37.950;145.008;2022-08-02T10:52:30;100456.14;;;14.28;33.83
54870;BME280;40756;-37.950;145.008;2022-08-02T10:55:01;100455.23;;;14.66;34.04
54870;BME280;40756;-37.950;145.008;2022-08-02T10:57:33;100451.20;;;14.51;34.00
54870;BME280;40756;-37.950;145.008;2022-08-02T11:00:11;100458.19;;;14.94;33.67
54870;BME280;40756;-37.950;145.008;2022-08-02T11:02:43;100441.33;;;14.85;33.71
54870;BME280;40756;-37.950;145.008;2022-08-02T11:05:16;100432.02;;;15.10;33.71
54870;BME280;40756;-37.950;145.008;2022-08-02T11:07:47;100445.67;;;14.71;33.87
54870;BME280;40756;-37.950;145.008;2022-08-02T11:10:36;100440.85;;;14.79;33.93
54870;BME280;40756;-37.950;145.008;2022-08-02T11:13:09;100446.93;;;15.42;33.67
54870;BME280;40756;-37.950;145.008;2022-08-02T11:15:58;100432.92;;;14.86;33.95
54870;BME280;40756;-37.950;145.008;2022-08-02T11:20:12;100431.80;;;15.25;33.96
54870;BME280;40756;-37.950;145.008;2022-08-02T11:22:43;100432.77;;;14.38;34.28
54870;BME280;40756;-37.950;145.008;2022-08-02T11:25:32;100410.94;;;14.55;34.67
54870;BME280;40756;-37.950;145.008;2022-08-02T11:28:10;100385.73;;;14.58;34.07
54870;BME280;40756;-37.950;145.008;2022-08-02T11:30:40;100365.47;;;14.68;34.38
54870;BME280;40756;-37.950;145.008;2022-08-02T11:33:10;100340.05;;;14.46;34.19
54870;BME280;40756;-37.950;145.008;2022-08-02T11:35:40;100333.15;;;14.73;33.65
54870;BME280;40756;-37.950;145.008;2022-08-02T11:38:18;100317.66;;;14.70;33.86
54870;BME280;40756;-37.950;145.008;2022-08-02T11:40:49;100374.13;;;14.56;33.81
54870;BME280;40756;-37.950;145.008;2022-08-02T11:43:21;100388.12;;;14.64;34.14
54870;BME280;40756;-37.950;145.008;2022-08-02T11:45:52;100397.09;;;14.81;34.03
54870;BME280;40756;-37.950;145.008;2022-08-02T11:48:39;100397.31;;;14.92;33.36
54870;BME280;40756;-37.950;145.008;2022-08-02T11:51:11;100386.40;;;14.95;33.30
54870;BME280;40756;-37.950;145.008;2022-08-02T11:53:44;100386.78;;;14.96;33.19
54870;BME280;40756;-37.950;145.008;2022-08-02T11:56:15;100379.40;;;14.71;33.22
54870;BME280;40756;-37.950;145.008;2022-08-02T11:59:02;100389.66;;;15.02;33.14
54870;BME280;40756;-37.950;145.008;2022-08-02T12:01:34;100382.52;;;14.88;33.03
54870;BME280;40756;-37.950;145.008;2022-08-02T12:04:05;100387.33;;;15.07;32.90
54870;BME280;40756;-37.950;145.008;2022-08-02T12:06:35;100380.83;;;15.10;32.66
54870;BME280;40756;-37.950;145.008;2022-08-02T12:09:06;100366.69;;;15.13;32.38
54870;BME280;40756;-37.950;145.008;2022-08-02T12:11:36;100360.35;;;15.33;32.64
54870;BME280;40756;-37.950;145.008;2022-08-02T12:14:06;100355.07;;;15.22;32.22
54870;BME280;40756;-37.950;145.008;2022-08-02T12:16:38;100353.58;;;14.69;31.98
54870;BME280;40756;-37.950;145.008;2022-08-02T12:19:08;100346.17;;;15.31;32.18
54870;BME280;40756;-37.950;145.008;2022-08-02T12:21:37;100332.39;;;15.59;32.08
54870;BME280;40756;-37.950;145.008;2022-08-02T12:24:07;100336.17;;;14.97;31.50
54870;BME280;40756;-37.950;145.008;2022-08-02T12:26:47;100340.84;;;15.47;31.61
54870;BME280;40756;-37.950;145.008;2022-08-02T12:29:16;100329.39;;;15.25;31.44
54870;BME280;40756;-37.950;145.008;2022-08-02T12:31:57;100320.62;;;14.61;31.43
54870;BME280;40756;-37.950;145.008;2022-08-02T12:34:28;100323.93;;;15.44;31.16
54870;BME280;40756;-37.950;145.008;2022-08-02T12:37:07;100315.68;;;14.98;31.37
54870;BME280;40756;-37.950;145.008;2022-08-02T12:39:39;100318.27;;;15.19;34.27
54870;BME280;40756;-37.950;145.008;2022-08-02T12:42:12;100302.42;;;15.05;33.07
54870;BME280;40756;-37.950;145.008;2022-08-02T12:44:52;100298.56;;;15.12;32.22